Main page
METAR-TAF:

METAR-TAF

Airports :

Mont-De-Marsan, France

latitude: 43-55N, longitude: 000-30W, elevation: 62 m

Current weather observation

The report was made 13 minutes ago, at 18:30 UTC
Wind 3 kt from the North/Northeast
Temperature 6°C
Humidity 75%
Pressure 1002 hPa
Visibility 10 km or more
no clouds below 1500 m and no cumulonimbus

METAR: LFBM 191830Z AUTO 02003KT CAVOK 06/02 Q1002 NOSIG

Time: 19:43 (18:43 UTC)

Forecast

The report was made 4 hours and 43 minutes ago, at 14:00 UTC
Forecast valid from 19 at 15 UTC to 20 at 15 UTC
Wind 5 kt from the Northeast
Visibility 10 km or more
no clouds below 1500 m and no cumulonimbus

TAF: LFBM 191400Z 1915/2015 04005KT CAVOK

Weather observations and forecasts of more than 4000 airports (METAR and TAF reports).

The available stations are represented by yellow and red dots on the map.

Hover mouse over dot to see the name of the station.

Then click to see weather observations and forecasts.

To change the map : click on the green buttons with a black cross to zoom in, on the green button with a dash to zoom out, or on the green arrows for adjacent maps.


METAR-TAF: